TULLOCH (TUL)

Elevation: 515' · STANISLAUS R basin · Operator: US Bureau of Reclamation

Provisional data, subject to change.
Query executed Friday at 8:53:20   clock

Select a sensor type for a plot of data.
Note: Reservoir Flows are daily averages.

Earlier

Date RES ELE    STORAGE    RES CHG    TOC STO    ABV TOC    OUTFLOW    INFLOW    EVAP    RIV REL    SPILL    DIS PWR   
 FEET   AF   AF   AF   AF   CFS   CFS   CFS   CFS   CFS   CFS  
09/25/2014 507.15 63459 -1104 64826 -1367 913 369 13 0 0 913
09/26/2014 506.67 62883 -576 64609 -1726 688 401 3 0 0 688
09/27/2014 506.70 62919 36 64391 -1472 526 556 12 0 0 526
09/28/2014 505.86 61918 -1001 64174 -2256 511 11 5 0 0 511
09/29/2014 505.77 61813 -105 63956 -2143 453 405 5 34 0 419
09/30/2014 505.71 61742 -71 63739 -1997 442 413 7 0 0 442
10/01/2014 504.69 60548 -1194 63522 -2974 602 7 7 0 0 602
10/02/2014 503.48 59157 -1391 63304 -4147 707 17 11 0 0 707
10/03/2014 503.61 59305 148 63087 -3782 762 851 14 0 0 762
10/04/2014 503.45 59123 -182 62869 -3746 801 719 10 0 0 801
10/05/2014 503.26 58906 -217 62652 -3746 800 703 12 0 0 800
10/06/2014 503.26 58906 0 62435 -3529 769 783 14 0 0 769
10/07/2014 503.48 59157 251 62217 -3060 705 843 11 0 0 705
10/08/2014 503.87 59602 445 62000 -2398 635 870 11 0 0 635
10/09/2014 504.60 60444 842 61783 -1339 539 978 14 0 0 539
10/10/2014 504.98 60884 440 61565 -681 313 546 11 0 0 313
10/11/2014 504.87 60757 -127 61348 -591 292 239 11 0 0 292
10/12/2014 504.75 60618 -139 61130 -512 292 239 17 0 0 292
10/13/2014 504.61 60456 -162 60913 -457 295 223 10 0 0 295
10/14/2014 504.21 59993 -463 60696 -703 309 86 10 0 0 309
10/15/2014 503.68 59385 -608 60478 -60418807 331 33 9 0 0 331
10/16/2014 503.15 58781 -604 60261 -1480 343 45 7 0 0 343
10/17/2014 502.81 58397 -384 60043 -1646 291 104 7 0 0 291
10/18/2014 502.79 58375 -22 59826 -1451 223 217 5 0 0 223
10/19/2014 502.61 58173 -202 59609 -1436 220 125 7 0 0 220
10/20/2014 502.31 57837 -336 59391 -1554 210 49 8 0 0 210
10/21/2014 502.80 58386 549 59174 -788 615 896 4 0 0 615
10/22/2014 502.45 57994 -392 58956 -962 523 334 9 0 0 523
10/23/2014 501.98 57468 -526 58739 -1271 287 30 8 0 0 287
10/24/2014 -- -- -- -- -- -- -- -- -- -- --

Later | Latest

Warning! This data is preliminary and subject to revision.

Show TUL Map | Plot TUL Data | 1 Month TUL Data | Real-Time TUL Data | TUL Info